sensor_id;sensor_type;location;lat;lon;timestamp;P1;durP1;ratioP1;P2;durP2;ratioP2
15929;SDS011;8064;51.142;4.780;2022-09-12T00:00:28;9.17;;;7.97;;
15929;SDS011;8064;51.142;4.780;2022-09-12T00:02:56;9.20;;;7.80;;
15929;SDS011;8064;51.142;4.780;2022-09-12T00:05:23;8.83;;;7.87;;
15929;SDS011;8064;51.142;4.780;2022-09-12T00:07:49;9.83;;;7.40;;
15929;SDS011;8064;51.142;4.780;2022-09-12T00:10:15;7.70;;;7.00;;
15929;SDS011;8064;51.142;4.780;2022-09-12T00:12:41;7.57;;;6.03;;
15929;SDS011;8064;51.142;4.780;2022-09-12T00:15:08;9.13;;;8.20;;
15929;SDS011;8064;51.142;4.780;2022-09-12T00:17:35;8.53;;;7.73;;
15929;SDS011;8064;51.142;4.780;2022-09-12T00:20:02;8.03;;;5.93;;
15929;SDS011;8064;51.142;4.780;2022-09-12T00:22:29;9.83;;;5.97;;
15929;SDS011;8064;51.142;4.780;2022-09-12T00:24:55;6.67;;;6.07;;
15929;SDS011;8064;51.142;4.780;2022-09-12T00:27:21;6.57;;;5.60;;
15929;SDS011;8064;51.142;4.780;2022-09-12T00:29:46;7.47;;;6.57;;
15929;SDS011;8064;51.142;4.780;2022-09-12T00:32:12;6.43;;;5.80;;
15929;SDS011;8064;51.142;4.780;2022-09-12T00:34:38;6.97;;;6.27;;
15929;SDS011;8064;51.142;4.780;2022-09-12T00:37:03;6.60;;;6.00;;
15929;SDS011;8064;51.142;4.780;2022-09-12T00:39:29;7.90;;;6.17;;
15929;SDS011;8064;51.142;4.780;2022-09-12T00:41:55;8.63;;;6.70;;
15929;SDS011;8064;51.142;4.780;2022-09-12T00:46:48;8.33;;;7.47;;
15929;SDS011;8064;51.142;4.780;2022-09-12T00:49:17;8.60;;;7.57;;
15929;SDS011;8064;51.142;4.780;2022-09-12T00:51:51;8.63;;;7.23;;
15929;SDS011;8064;51.142;4.780;2022-09-12T00:54:24;10.57;;;7.50;;
15929;SDS011;8064;51.142;4.780;2022-09-12T00:56:55;8.60;;;7.70;;
15929;SDS011;8064;51.142;4.780;2022-09-12T00:59:26;9.77;;;8.20;;
15929;SDS011;8064;51.142;4.780;2022-09-12T01:02:10;9.23;;;7.50;;
15929;SDS011;8064;51.142;4.780;2022-09-12T01:04:36;9.87;;;7.77;;
15929;SDS011;8064;51.142;4.780;2022-09-12T01:07:05;8.57;;;7.53;;
15929;SDS011;8064;51.142;4.780;2022-09-12T01:09:32;8.00;;;7.20;;
15929;SDS011;8064;51.142;4.780;2022-09-12T01:11:59;7.83;;;7.13;;
15929;SDS011;8064;51.142;4.780;2022-09-12T01:14:26;7.50;;;6.53;;
15929;SDS011;8064;51.142;4.780;2022-09-12T01:16:53;7.03;;;6.23;;
15929;SDS011;8064;51.142;4.780;2022-09-12T01:19:24;7.57;;;6.57;;
15929;SDS011;8064;51.142;4.780;2022-09-12T01:25:02;8.13;;;6.73;;
15929;SDS011;8064;51.142;4.780;2022-09-12T01:28:05;8.10;;;7.30;;
15929;SDS011;8064;51.142;4.780;2022-09-12T01:30:54;12.03;;;7.83;;
15929;SDS011;8064;51.142;4.780;2022-09-12T01:33:48;9.27;;;8.13;;
15929;SDS011;8064;51.142;4.780;2022-09-12T01:39:39;9.83;;;7.13;;
15929;SDS011;8064;51.142;4.780;2022-09-12T01:45:10;11.30;;;7.37;;
15929;SDS011;8064;51.142;4.780;2022-09-12T01:47:46;8.40;;;7.60;;
15929;SDS011;8064;51.142;4.780;2022-09-12T01:50:20;9.83;;;8.63;;
15929;SDS011;8064;51.142;4.780;2022-09-12T01:55:38;11.97;;;8.07;;
15929;SDS011;8064;51.142;4.780;2022-09-12T02:00:38;9.07;;;8.17;;
15929;SDS011;8064;51.142;4.780;2022-09-12T02:03:13;10.47;;;8.90;;
15929;SDS011;8064;51.142;4.780;2022-09-12T02:05:48;9.60;;;7.27;;
15929;SDS011;8064;51.142;4.780;2022-09-12T02:16:04;8.53;;;6.83;;
15929;SDS011;8064;51.142;4.780;2022-09-12T02:18:35;8.33;;;7.13;;
15929;SDS011;8064;51.142;4.780;2022-09-12T02:21:04;10.13;;;8.27;;
15929;SDS011;8064;51.142;4.780;2022-09-12T02:23:31;9.47;;;8.47;;
15929;SDS011;8064;51.142;4.780;2022-09-12T02:26:01;11.37;;;8.27;;
15929;SDS011;8064;51.142;4.780;2022-09-12T02:28:33;10.53;;;9.40;;
15929;SDS011;8064;51.142;4.780;2022-09-12T02:39:16;13.20;;;10.10;;
15929;SDS011;8064;51.142;4.780;2022-09-12T02:41:45;10.93;;;9.50;;
15929;SDS011;8064;51.142;4.780;2022-09-12T02:44:12;13.60;;;10.60;;
15929;SDS011;8064;51.142;4.780;2022-09-12T02:46:40;10.50;;;9.40;;
15929;SDS011;8064;51.142;4.780;2022-09-12T02:49:08;11.30;;;9.93;;
15929;SDS011;8064;51.142;4.780;2022-09-12T02:51:34;12.30;;;10.67;;
15929;SDS011;8064;51.142;4.780;2022-09-12T02:53:59;14.60;;;11.10;;
15929;SDS011;8064;51.142;4.780;2022-09-12T02:56:28;14.50;;;10.73;;
15929;SDS011;8064;51.142;4.780;2022-09-12T02:58:55;13.30;;;11.30;;
15929;SDS011;8064;51.142;4.780;2022-09-12T03:07:11;12.20;;;10.73;;
15929;SDS011;8064;51.142;4.780;2022-09-12T03:09:53;12.83;;;11.10;;
15929;SDS011;8064;51.142;4.780;2022-09-12T03:15:27;14.17;;;11.60;;
15929;SDS011;8064;51.142;4.780;2022-09-12T03:21:21;15.63;;;12.07;;
15929;SDS011;8064;51.142;4.780;2022-09-12T03:23:58;13.57;;;10.90;;
15929;SDS011;8064;51.142;4.780;2022-09-12T03:26:30;13.97;;;10.93;;
15929;SDS011;8064;51.142;4.780;2022-09-12T03:29:00;12.73;;;10.37;;
15929;SDS011;8064;51.142;4.780;2022-09-12T03:31:28;12.03;;;10.70;;
15929;SDS011;8064;51.142;4.780;2022-09-12T03:33:53;13.50;;;10.53;;
15929;SDS011;8064;51.142;4.780;2022-09-12T03:36:31;14.47;;;10.60;;
15929;SDS011;8064;51.142;4.780;2022-09-12T03:38:58;15.10;;;11.47;;
15929;SDS011;8064;51.142;4.780;2022-09-12T03:41:24;14.10;;;11.50;;
15929;SDS011;8064;51.142;4.780;2022-09-12T03:43:50;14.00;;;10.80;;
15929;SDS011;8064;51.142;4.780;2022-09-12T03:46:15;14.30;;;11.27;;
15929;SDS011;8064;51.142;4.780;2022-09-12T03:48:41;13.80;;;10.53;;
15929;SDS011;8064;51.142;4.780;2022-09-12T03:51:07;12.40;;;10.20;;
15929;SDS011;8064;51.142;4.780;2022-09-12T03:53:34;14.87;;;10.73;;
15929;SDS011;8064;51.142;4.780;2022-09-12T03:56:04;14.33;;;10.70;;
15929;SDS011;8064;51.142;4.780;2022-09-12T03:58:43;14.70;;;11.33;;
15929;SDS011;8064;51.142;4.780;2022-09-12T04:01:09;14.80;;;11.33;;
15929;SDS011;8064;51.142;4.780;2022-09-12T04:03:38;13.63;;;11.40;;
15929;SDS011;8064;51.142;4.780;2022-09-12T04:06:05;15.63;;;11.50;;
15929;SDS011;8064;51.142;4.780;2022-09-12T04:08:31;14.53;;;12.00;;
15929;SDS011;8064;51.142;4.780;2022-09-12T04:13:42;13.50;;;10.97;;
15929;SDS011;8064;51.142;4.780;2022-09-12T04:16:09;15.63;;;12.20;;
15929;SDS011;8064;51.142;4.780;2022-09-12T04:18:35;17.90;;;13.07;;
15929;SDS011;8064;51.142;4.780;2022-09-12T04:21:03;17.60;;;13.53;;
15929;SDS011;8064;51.142;4.780;2022-09-12T04:23:31;14.20;;;11.67;;
15929;SDS011;8064;51.142;4.780;2022-09-12T04:25:57;17.10;;;12.97;;
15929;SDS011;8064;51.142;4.780;2022-09-12T04:28:26;16.63;;;13.00;;
15929;SDS011;8064;51.142;4.780;2022-09-12T04:30:53;17.03;;;12.90;;
15929;SDS011;8064;51.142;4.780;2022-09-12T04:33:20;15.93;;;12.83;;
15929;SDS011;8064;51.142;4.780;2022-09-12T04:35:46;14.17;;;12.17;;
15929;SDS011;8064;51.142;4.780;2022-09-12T04:38:12;17.10;;;13.10;;
15929;SDS011;8064;51.142;4.780;2022-09-12T04:40:38;18.10;;;13.77;;
15929;SDS011;8064;51.142;4.780;2022-09-12T04:43:05;16.97;;;12.53;;
15929;SDS011;8064;51.142;4.780;2022-09-12T04:45:31;17.27;;;12.73;;
15929;SDS011;8064;51.142;4.780;2022-09-12T04:47:58;19.43;;;13.53;;
15929;SDS011;8064;51.142;4.780;2022-09-12T04:50:24;16.87;;;12.90;;
15929;SDS011;8064;51.142;4.780;2022-09-12T04:52:50;17.17;;;12.40;;
15929;SDS011;8064;51.142;4.780;2022-09-12T04:55:17;17.10;;;12.17;;
15929;SDS011;8064;51.142;4.780;2022-09-12T04:57:44;18.70;;;12.73;;
15929;SDS011;8064;51.142;4.780;2022-09-12T05:00:10;15.33;;;11.83;;
15929;SDS011;8064;51.142;4.780;2022-09-12T05:02:37;14.60;;;11.77;;
15929;SDS011;8064;51.142;4.780;2022-09-12T05:05:03;15.70;;;11.53;;
15929;SDS011;8064;51.142;4.780;2022-09-12T05:07:30;15.70;;;12.03;;
15929;SDS011;8064;51.142;4.780;2022-09-12T05:09:56;16.83;;;11.97;;
15929;SDS011;8064;51.142;4.780;2022-09-12T05:12:22;17.00;;;12.80;;
15929;SDS011;8064;51.142;4.780;2022-09-12T05:14:48;15.17;;;12.57;;
15929;SDS011;8064;51.142;4.780;2022-09-12T05:17:14;17.50;;;13.17;;
15929;SDS011;8064;51.142;4.780;2022-09-12T05:19:39;15.40;;;11.47;;
15929;SDS011;8064;51.142;4.780;2022-09-12T05:22:05;16.33;;;11.93;;
15929;SDS011;8064;51.142;4.780;2022-09-12T05:24:31;15.33;;;12.10;;
15929;SDS011;8064;51.142;4.780;2022-09-12T05:26:57;17.67;;;12.90;;
15929;SDS011;8064;51.142;4.780;2022-09-12T05:29:22;17.57;;;12.97;;
15929;SDS011;8064;51.142;4.780;2022-09-12T05:31:49;15.97;;;12.13;;
15929;SDS011;8064;51.142;4.780;2022-09-12T05:34:17;15.23;;;12.23;;
15929;SDS011;8064;51.142;4.780;2022-09-12T05:36:43;16.57;;;11.43;;
15929;SDS011;8064;51.142;4.780;2022-09-12T05:39:09;13.80;;;11.57;;
15929;SDS011;8064;51.142;4.780;2022-09-12T05:41:35;16.80;;;11.50;;
15929;SDS011;8064;51.142;4.780;2022-09-12T05:44:02;16.27;;;11.93;;
15929;SDS011;8064;51.142;4.780;2022-09-12T05:46:30;15.93;;;12.10;;
15929;SDS011;8064;51.142;4.780;2022-09-12T05:49:01;15.20;;;11.93;;
15929;SDS011;8064;51.142;4.780;2022-09-12T05:51:30;13.37;;;11.10;;
15929;SDS011;8064;51.142;4.780;2022-09-12T05:53:59;17.50;;;12.10;;
15929;SDS011;8064;51.142;4.780;2022-09-12T05:56:28;16.37;;;12.13;;
15929;SDS011;8064;51.142;4.780;2022-09-12T05:58:57;14.43;;;11.57;;
15929;SDS011;8064;51.142;4.780;2022-09-12T06:01:24;18.47;;;12.70;;
15929;SDS011;8064;51.142;4.780;2022-09-12T06:03:52;18.47;;;12.20;;
15929;SDS011;8064;51.142;4.780;2022-09-12T06:06:20;16.50;;;12.20;;
15929;SDS011;8064;51.142;4.780;2022-09-12T06:08:48;16.20;;;12.43;;
15929;SDS011;8064;51.142;4.780;2022-09-12T06:11:16;15.33;;;11.93;;
15929;SDS011;8064;51.142;4.780;2022-09-12T06:13:44;15.23;;;12.63;;
15929;SDS011;8064;51.142;4.780;2022-09-12T06:18:39;15.33;;;11.87;;
15929;SDS011;8064;51.142;4.780;2022-09-12T06:21:06;14.33;;;10.97;;
15929;SDS011;8064;51.142;4.780;2022-09-12T06:23:33;15.07;;;11.30;;
15929;SDS011;8064;51.142;4.780;2022-09-12T06:25:59;16.37;;;11.53;;
15929;SDS011;8064;51.142;4.780;2022-09-12T06:28:25;17.77;;;12.63;;
15929;SDS011;8064;51.142;4.780;2022-09-12T06:30:51;16.30;;;13.13;;
15929;SDS011;8064;51.142;4.780;2022-09-12T06:33:17;17.10;;;13.53;;
15929;SDS011;8064;51.142;4.780;2022-09-12T06:35:43;18.93;;;14.33;;
15929;SDS011;8064;51.142;4.780;2022-09-12T06:38:09;18.33;;;12.97;;
15929;SDS011;8064;51.142;4.780;2022-09-12T06:40:39;19.17;;;14.17;;
15929;SDS011;8064;51.142;4.780;2022-09-12T06:43:08;16.93;;;13.13;;
15929;SDS011;8064;51.142;4.780;2022-09-12T06:45:35;17.63;;;14.27;;
15929;SDS011;8064;51.142;4.780;2022-09-12T06:48:01;17.80;;;14.30;;
15929;SDS011;8064;51.142;4.780;2022-09-12T06:50:26;18.67;;;14.53;;
15929;SDS011;8064;51.142;4.780;2022-09-12T06:52:52;20.40;;;14.20;;
15929;SDS011;8064;51.142;4.780;2022-09-12T06:55:18;17.00;;;14.60;;
15929;SDS011;8064;51.142;4.780;2022-09-12T06:57:43;18.20;;;14.43;;
15929;SDS011;8064;51.142;4.780;2022-09-12T07:00:09;19.70;;;13.90;;
15929;SDS011;8064;51.142;4.780;2022-09-12T07:02:35;18.13;;;14.67;;
15929;SDS011;8064;51.142;4.780;2022-09-12T07:05:01;16.57;;;14.10;;
15929;SDS011;8064;51.142;4.780;2022-09-12T07:07:27;17.47;;;14.07;;
15929;SDS011;8064;51.142;4.780;2022-09-12T07:09:53;18.33;;;14.37;;
15929;SDS011;8064;51.142;4.780;2022-09-12T07:12:21;18.13;;;14.37;;
15929;SDS011;8064;51.142;4.780;2022-09-12T07:14:47;16.20;;;13.73;;
15929;SDS011;8064;51.142;4.780;2022-09-12T07:17:13;15.27;;;13.33;;
15929;SDS011;8064;51.142;4.780;2022-09-12T07:19:39;14.67;;;11.93;;
15929;SDS011;8064;51.142;4.780;2022-09-12T07:22:05;16.27;;;13.57;;
15929;SDS011;8064;51.142;4.780;2022-09-12T07:24:31;14.70;;;12.93;;
15929;SDS011;8064;51.142;4.780;2022-09-12T07:26:56;19.50;;;13.50;;
15929;SDS011;8064;51.142;4.780;2022-09-12T07:29:22;19.63;;;13.23;;
15929;SDS011;8064;51.142;4.780;2022-09-12T07:31:48;13.07;;;11.67;;
15929;SDS011;8064;51.142;4.780;2022-09-12T07:34:13;14.50;;;12.97;;
15929;SDS011;8064;51.142;4.780;2022-09-12T07:36:39;15.87;;;11.67;;
15929;SDS011;8064;51.142;4.780;2022-09-12T07:39:05;16.73;;;12.93;;
15929;SDS011;8064;51.142;4.780;2022-09-12T07:41:32;16.83;;;12.47;;
15929;SDS011;8064;51.142;4.780;2022-09-12T07:43:59;14.13;;;11.80;;
15929;SDS011;8064;51.142;4.780;2022-09-12T07:46:26;12.60;;;11.10;;
15929;SDS011;8064;51.142;4.780;2022-09-12T07:48:54;16.37;;;11.17;;
15929;SDS011;8064;51.142;4.780;2022-09-12T07:51:21;12.97;;;10.73;;
15929;SDS011;8064;51.142;4.780;2022-09-12T07:53:48;14.10;;;9.97;;
15929;SDS011;8064;51.142;4.780;2022-09-12T07:56:14;10.98;;;9.23;;
15929;SDS011;8064;51.142;4.780;2022-09-12T07:58:41;10.87;;;9.43;;
15929;SDS011;8064;51.142;4.780;2022-09-12T08:01:09;10.18;;;8.45;;
15929;SDS011;8064;51.142;4.780;2022-09-12T08:03:38;13.95;;;9.15;;
15929;SDS011;8064;51.142;4.780;2022-09-12T08:06:06;9.10;;;8.20;;
15929;SDS011;8064;51.142;4.780;2022-09-12T08:08:33;10.85;;;8.55;;
15929;SDS011;8064;51.142;4.780;2022-09-12T08:11:00;9.93;;;7.72;;
15929;SDS011;8064;51.142;4.780;2022-09-12T08:13:28;9.07;;;7.93;;
15929;SDS011;8064;51.142;4.780;2022-09-12T08:18:37;8.75;;;7.85;;
15929;SDS011;8064;51.142;4.780;2022-09-12T08:21:05;9.40;;;7.70;;
15929;SDS011;8064;51.142;4.780;2022-09-12T08:23:33;9.80;;;7.63;;
15929;SDS011;8064;51.142;4.780;2022-09-12T08:26:00;8.00;;;7.20;;
15929;SDS011;8064;51.142;4.780;2022-09-12T08:28:27;8.80;;;6.97;;
15929;SDS011;8064;51.142;4.780;2022-09-12T08:30:59;11.20;;;6.72;;
15929;SDS011;8064;51.142;4.780;2022-09-12T08:33:25;10.20;;;7.00;;
15929;SDS011;8064;51.142;4.780;2022-09-12T08:36:01;8.10;;;7.30;;
15929;SDS011;8064;51.142;4.780;2022-09-12T08:38:28;12.57;;;6.45;;
15929;SDS011;8064;51.142;4.780;2022-09-12T08:40:58;9.10;;;7.28;;
15929;SDS011;8064;51.142;4.780;2022-09-12T08:47:10;9.95;;;6.18;;
15929;SDS011;8064;51.142;4.780;2022-09-12T08:49:33;7.13;;;5.70;;
15929;SDS011;8064;51.142;4.780;2022-09-12T08:52:04;7.00;;;6.22;;
15929;SDS011;8064;51.142;4.780;2022-09-12T08:54:48;6.32;;;5.72;;
15929;SDS011;8064;51.142;4.780;2022-09-12T08:57:14;8.05;;;5.97;;
15929;SDS011;8064;51.142;4.780;2022-09-12T08:59:41;6.20;;;5.20;;
15929;SDS011;8064;51.142;4.780;2022-09-12T09:02:23;5.90;;;5.30;;
15929;SDS011;8064;51.142;4.780;2022-09-12T09:16:51;5.25;;;3.80;;
15929;SDS011;8064;51.142;4.780;2022-09-12T09:19:21;4.45;;;3.85;;
15929;SDS011;8064;51.142;4.780;2022-09-12T09:24:57;3.60;;;3.30;;
15929;SDS011;8064;51.142;4.780;2022-09-12T09:27:28;3.33;;;3.03;;
15929;SDS011;8064;51.142;4.780;2022-09-12T09:29:57;3.63;;;2.90;;
15929;SDS011;8064;51.142;4.780;2022-09-12T09:32:25;3.70;;;3.25;;
15929;SDS011;8064;51.142;4.780;2022-09-12T09:34:52;4.00;;;3.60;;
15929;SDS011;8064;51.142;4.780;2022-09-12T09:37:19;3.28;;;2.95;;
15929;SDS011;8064;51.142;4.780;2022-09-12T09:39:48;5.38;;;2.83;;
15929;SDS011;8064;51.142;4.780;2022-09-12T09:42:37;6.65;;;2.67;;
15929;SDS011;8064;51.142;4.780;2022-09-12T09:45:11;4.13;;;2.85;;
15929;SDS011;8064;51.142;4.780;2022-09-12T09:47:43;3.95;;;2.63;;
15929;SDS011;8064;51.142;4.780;2022-09-12T09:50:13;3.08;;;2.50;;
15929;SDS011;8064;51.142;4.780;2022-09-12T09:52:41;3.15;;;2.28;;
15929;SDS011;8064;51.142;4.780;2022-09-12T09:55:11;2.88;;;2.10;;
15929;SDS011;8064;51.142;4.780;2022-09-12T09:57:42;3.53;;;2.40;;
15929;SDS011;8064;51.142;4.780;2022-09-12T10:00:20;4.65;;;2.63;;
15929;SDS011;8064;51.142;4.780;2022-09-12T10:05:50;3.70;;;2.03;;
15929;SDS011;8064;51.142;4.780;2022-09-12T10:08:19;2.00;;;1.90;;
15929;SDS011;8064;51.142;4.780;2022-09-12T10:13:53;2.20;;;2.00;;
15929;SDS011;8064;51.142;4.780;2022-09-12T10:16:23;2.20;;;1.98;;
15929;SDS011;8064;51.142;4.780;2022-09-12T10:18:52;3.03;;;1.77;;
15929;SDS011;8064;51.142;4.780;2022-09-12T10:21:22;2.45;;;2.08;;
15929;SDS011;8064;51.142;4.780;2022-09-12T10:29:31;2.08;;;1.88;;
15929;SDS011;8064;51.142;4.780;2022-09-12T10:32:00;3.13;;;2.20;;
15929;SDS011;8064;51.142;4.780;2022-09-12T10:34:32;2.03;;;1.80;;
15929;SDS011;8064;51.142;4.780;2022-09-12T10:37:03;3.28;;;2.10;;
15929;SDS011;8064;51.142;4.780;2022-09-12T10:39:31;2.45;;;1.83;;
15929;SDS011;8064;51.142;4.780;2022-09-12T10:41:59;2.08;;;1.88;;
15929;SDS011;8064;51.142;4.780;2022-09-12T10:44:27;1.88;;;1.55;;
15929;SDS011;8064;51.142;4.780;2022-09-12T10:46:55;2.05;;;1.70;;
15929;SDS011;8064;51.142;4.780;2022-09-12T10:49:23;1.80;;;1.40;;
15929;SDS011;8064;51.142;4.780;2022-09-12T10:51:52;3.55;;;1.90;;
15929;SDS011;8064;51.142;4.780;2022-09-12T10:54:20;2.63;;;1.52;;
15929;SDS011;8064;51.142;4.780;2022-09-12T10:56:51;2.22;;;1.77;;
15929;SDS011;8064;51.142;4.780;2022-09-12T11:05:57;2.30;;;1.85;;
15929;SDS011;8064;51.142;4.780;2022-09-12T11:40:02;2.15;;;1.83;;
15929;SDS011;8064;51.142;4.780;2022-09-12T11:42:44;2.90;;;1.80;;
15929;SDS011;8064;51.142;4.780;2022-09-12T11:45:15;4.28;;;2.20;;
15929;SDS011;8064;51.142;4.780;2022-09-12T11:47:48;2.17;;;1.98;;
15929;SDS011;8064;51.142;4.780;2022-09-12T11:53:02;2.10;;;1.90;;
15929;SDS011;8064;51.142;4.780;2022-09-12T11:55:38;2.35;;;1.85;;
15929;SDS011;8064;51.142;4.780;2022-09-12T11:58:12;2.75;;;2.08;;
15929;SDS011;8064;51.142;4.780;2022-09-12T12:06:18;2.47;;;2.00;;
15929;SDS011;8064;51.142;4.780;2022-09-12T12:08:49;2.42;;;2.00;;
15929;SDS011;8064;51.142;4.780;2022-09-12T12:18:53;3.70;;;1.90;;
15929;SDS011;8064;51.142;4.780;2022-09-12T12:21:37;2.50;;;1.75;;
15929;SDS011;8064;51.142;4.780;2022-09-12T12:34:30;3.83;;;1.60;;
15929;SDS011;8064;51.142;4.780;2022-09-12T12:36:57;5.75;;;1.52;;
15929;SDS011;8064;51.142;4.780;2022-09-12T12:42:13;2.05;;;1.55;;
15929;SDS011;8064;51.142;4.780;2022-09-12T12:44:57;1.65;;;1.50;;
15929;SDS011;8064;51.142;4.780;2022-09-12T12:47:24;2.00;;;1.40;;
15929;SDS011;8064;51.142;4.780;2022-09-12T12:49:58;2.58;;;1.92;;
15929;SDS011;8064;51.142;4.780;2022-09-12T12:52:30;1.95;;;1.65;;
15929;SDS011;8064;51.142;4.780;2022-09-12T12:55:12;2.17;;;1.50;;
15929;SDS011;8064;51.142;4.780;2022-09-12T12:57:52;1.30;;;1.10;;
15929;SDS011;8064;51.142;4.780;2022-09-12T13:14:03;1.60;;;1.50;;
15929;SDS011;8064;51.142;4.780;2022-09-12T13:19:21;1.88;;;1.27;;
15929;SDS011;8064;51.142;4.780;2022-09-12T13:22:07;2.42;;;1.55;;
15929;SDS011;8064;51.142;4.780;2022-09-12T13:24:41;1.80;;;1.40;;
15929;SDS011;8064;51.142;4.780;2022-09-12T13:27:15;1.95;;;1.15;;
15929;SDS011;8064;51.142;4.780;2022-09-12T13:29:42;1.45;;;1.10;;
15929;SDS011;8064;51.142;4.780;2022-09-12T13:32:08;4.93;;;1.70;;
15929;SDS011;8064;51.142;4.780;2022-09-12T13:34:35;3.83;;;1.58;;
15929;SDS011;8064;51.142;4.780;2022-09-12T13:43:05;2.65;;;1.33;;
15929;SDS011;8064;51.142;4.780;2022-09-12T13:45:47;3.00;;;1.33;;
15929;SDS011;8064;51.142;4.780;2022-09-12T13:48:25;2.80;;;1.60;;
15929;SDS011;8064;51.142;4.780;2022-09-12T13:50:53;1.50;;;1.30;;
15929;SDS011;8064;51.142;4.780;2022-09-12T13:53:24;2.10;;;1.45;;
15929;SDS011;8064;51.142;4.780;2022-09-12T13:56:07;3.38;;;1.17;;
15929;SDS011;8064;51.142;4.780;2022-09-12T13:58:49;1.48;;;1.38;;
15929;SDS011;8064;51.142;4.780;2022-09-12T14:01:18;1.42;;;1.13;;
15929;SDS011;8064;51.142;4.780;2022-09-12T14:06:51;3.30;;;1.35;;
15929;SDS011;8064;51.142;4.780;2022-09-12T14:12:02;2.05;;;1.23;;
15929;SDS011;8064;51.142;4.780;2022-09-12T14:14:35;1.65;;;1.13;;
15929;SDS011;8064;51.142;4.780;2022-09-12T14:19:54;3.22;;;1.27;;
15929;SDS011;8064;51.142;4.780;2022-09-12T14:22:23;2.03;;;1.30;;
15929;SDS011;8064;51.142;4.780;2022-09-12T14:24:54;1.75;;;1.23;;
15929;SDS011;8064;51.142;4.780;2022-09-12T14:27:23;2.70;;;1.25;;
15929;SDS011;8064;51.142;4.780;2022-09-12T14:29:56;1.70;;;1.20;;
15929;SDS011;8064;51.142;4.780;2022-09-12T14:32:26;1.38;;;1.23;;
15929;SDS011;8064;51.142;4.780;2022-09-12T14:35:02;3.10;;;1.40;;
15929;SDS011;8064;51.142;4.780;2022-09-12T14:37:30;2.03;;;1.40;;
15929;SDS011;8064;51.142;4.780;2022-09-12T14:39:56;3.65;;;1.40;;
15929;SDS011;8064;51.142;4.780;2022-09-12T14:42:23;1.35;;;1.25;;
15929;SDS011;8064;51.142;4.780;2022-09-12T14:44:56;3.80;;;1.60;;
15929;SDS011;8064;51.142;4.780;2022-09-12T14:47:25;1.33;;;1.02;;
15929;SDS011;8064;51.142;4.780;2022-09-12T14:49:52;2.13;;;1.20;;
15929;SDS011;8064;51.142;4.780;2022-09-12T14:52:32;3.42;;;1.45;;
15929;SDS011;8064;51.142;4.780;2022-09-12T14:55:01;2.22;;;1.27;;
15929;SDS011;8064;51.142;4.780;2022-09-12T14:57:43;1.67;;;1.20;;
15929;SDS011;8064;51.142;4.780;2022-09-12T15:02:35;1.20;;;1.10;;
15929;SDS011;8064;51.142;4.780;2022-09-12T15:10:25;3.40;;;1.00;;
15929;SDS011;8064;51.142;4.780;2022-09-12T15:15:42;1.65;;;1.25;;
15929;SDS011;8064;51.142;4.780;2022-09-12T15:18:10;2.38;;;1.42;;
15929;SDS011;8064;51.142;4.780;2022-09-12T15:20:37;1.75;;;1.10;;
15929;SDS011;8064;51.142;4.780;2022-09-12T15:23:05;1.42;;;1.00;;
15929;SDS011;8064;51.142;4.780;2022-09-12T15:25:34;1.15;;;1.00;;
15929;SDS011;8064;51.142;4.780;2022-09-12T15:28:00;1.40;;;1.10;;
15929;SDS011;8064;51.142;4.780;2022-09-12T15:30:37;1.42;;;1.27;;
15929;SDS011;8064;51.142;4.780;2022-09-12T15:33:03;2.75;;;1.00;;
15929;SDS011;8064;51.142;4.780;2022-09-12T15:35:28;1.23;;;1.13;;
15929;SDS011;8064;51.142;4.780;2022-09-12T15:37:57;1.50;;;1.38;;
15929;SDS011;8064;51.142;4.780;2022-09-12T15:40:23;4.47;;;1.40;;
15929;SDS011;8064;51.142;4.780;2022-09-12T15:42:50;1.90;;;1.05;;
15929;SDS011;8064;51.142;4.780;2022-09-12T15:45:19;1.77;;;1.20;;
15929;SDS011;8064;51.142;4.780;2022-09-12T15:47:47;1.25;;;1.05;;
15929;SDS011;8064;51.142;4.780;2022-09-12T15:50:13;2.55;;;1.00;;
15929;SDS011;8064;51.142;4.780;2022-09-12T15:52:39;1.98;;;1.60;;
15929;SDS011;8064;51.142;4.780;2022-09-12T15:55:05;2.00;;;1.30;;
15929;SDS011;8064;51.142;4.780;2022-09-12T15:57:40;1.45;;;1.05;;
15929;SDS011;8064;51.142;4.780;2022-09-12T16:00:06;2.30;;;1.23;;
15929;SDS011;8064;51.142;4.780;2022-09-12T16:02:32;2.72;;;1.23;;
15929;SDS011;8064;51.142;4.780;2022-09-12T16:04:58;1.90;;;1.10;;
15929;SDS011;8064;51.142;4.780;2022-09-12T16:07:23;2.05;;;1.10;;
15929;SDS011;8064;51.142;4.780;2022-09-12T16:09:49;1.13;;;1.02;;
15929;SDS011;8064;51.142;4.780;2022-09-12T16:12:15;2.97;;;1.15;;
15929;SDS011;8064;51.142;4.780;2022-09-12T16:14:40;1.73;;;1.10;;
15929;SDS011;8064;51.142;4.780;2022-09-12T16:17:06;1.58;;;1.10;;
15929;SDS011;8064;51.142;4.780;2022-09-12T16:19:32;2.17;;;1.00;;
15929;SDS011;8064;51.142;4.780;2022-09-12T16:21:58;1.58;;;1.00;;
15929;SDS011;8064;51.142;4.780;2022-09-12T16:24:23;1.50;;;1.10;;
15929;SDS011;8064;51.142;4.780;2022-09-12T16:26:49;1.67;;;1.00;;
15929;SDS011;8064;51.142;4.780;2022-09-12T16:29:15;2.35;;;1.20;;
15929;SDS011;8064;51.142;4.780;2022-09-12T16:31:42;2.90;;;1.40;;
15929;SDS011;8064;51.142;4.780;2022-09-12T16:34:09;1.20;;;1.10;;
15929;SDS011;8064;51.142;4.780;2022-09-12T16:36:35;2.63;;;1.35;;
15929;SDS011;8064;51.142;4.780;2022-09-12T16:39:00;4.35;;;1.30;;
15929;SDS011;8064;51.142;4.780;2022-09-12T16:41:27;1.20;;;1.10;;
15929;SDS011;8064;51.142;4.780;2022-09-12T16:43:53;3.00;;;1.73;;
15929;SDS011;8064;51.142;4.780;2022-09-12T16:46:20;2.30;;;1.33;;
15929;SDS011;8064;51.142;4.780;2022-09-12T16:48:48;1.75;;;1.25;;
15929;SDS011;8064;51.142;4.780;2022-09-12T16:51:15;2.35;;;1.25;;
15929;SDS011;8064;51.142;4.780;2022-09-12T16:53:44;2.22;;;1.30;;
15929;SDS011;8064;51.142;4.780;2022-09-12T16:56:10;1.08;;;0.95;;
15929;SDS011;8064;51.142;4.780;2022-09-12T16:58:37;1.42;;;1.20;;
15929;SDS011;8064;51.142;4.780;2022-09-12T17:01:05;3.08;;;1.48;;
15929;SDS011;8064;51.142;4.780;2022-09-12T17:03:34;1.85;;;1.23;;
15929;SDS011;8064;51.142;4.780;2022-09-12T17:06:01;1.85;;;1.50;;
15929;SDS011;8064;51.142;4.780;2022-09-12T17:08:47;2.10;;;1.38;;
15929;SDS011;8064;51.142;4.780;2022-09-12T17:11:16;3.72;;;1.30;;
15929;SDS011;8064;51.142;4.780;2022-09-12T17:13:45;1.77;;;1.25;;
15929;SDS011;8064;51.142;4.780;2022-09-12T17:16:13;1.67;;;1.20;;
15929;SDS011;8064;51.142;4.780;2022-09-12T17:18:39;1.23;;;1.10;;
15929;SDS011;8064;51.142;4.780;2022-09-12T17:21:05;1.48;;;1.10;;
15929;SDS011;8064;51.142;4.780;2022-09-12T17:23:31;2.38;;;1.20;;
15929;SDS011;8064;51.142;4.780;2022-09-12T17:25:57;2.60;;;1.35;;
15929;SDS011;8064;51.142;4.780;2022-09-12T17:28:23;2.63;;;1.42;;
15929;SDS011;8064;51.142;4.780;2022-09-12T17:33:35;4.00;;;1.35;;
15929;SDS011;8064;51.142;4.780;2022-09-12T17:36:02;2.67;;;1.20;;
15929;SDS011;8064;51.142;4.780;2022-09-12T17:38:30;3.15;;;1.50;;
15929;SDS011;8064;51.142;4.780;2022-09-12T17:43:40;3.70;;;2.17;;
15929;SDS011;8064;51.142;4.780;2022-09-12T17:46:06;4.18;;;1.92;;
15929;SDS011;8064;51.142;4.780;2022-09-12T17:48:32;2.63;;;1.88;;
15929;SDS011;8064;51.142;4.780;2022-09-12T17:51:07;3.30;;;2.05;;
15929;SDS011;8064;51.142;4.780;2022-09-12T17:53:34;2.70;;;1.77;;
15929;SDS011;8064;51.142;4.780;2022-09-12T17:56:00;2.95;;;1.70;;
15929;SDS011;8064;51.142;4.780;2022-09-12T17:58:27;3.75;;;1.88;;
15929;SDS011;8064;51.142;4.780;2022-09-12T18:00:58;4.38;;;2.17;;
15929;SDS011;8064;51.142;4.780;2022-09-12T18:03:43;2.50;;;2.30;;
15929;SDS011;8064;51.142;4.780;2022-09-12T18:06:10;2.60;;;2.28;;
15929;SDS011;8064;51.142;4.780;2022-09-12T18:08:36;4.10;;;1.95;;
15929;SDS011;8064;51.142;4.780;2022-09-12T18:11:03;5.43;;;2.08;;
15929;SDS011;8064;51.142;4.780;2022-09-12T18:13:30;4.35;;;1.90;;
15929;SDS011;8064;51.142;4.780;2022-09-12T18:18:41;2.30;;;1.77;;
15929;SDS011;8064;51.142;4.780;2022-09-12T18:21:07;4.30;;;2.03;;
15929;SDS011;8064;51.142;4.780;2022-09-12T18:23:35;2.28;;;1.92;;